Time;durP1;ratioP1;P1;durP2;ratioP2;P2;SDS_P1;SDS_P2;PMS_P1;PMS_P2;Temp;Humidity;BMP_temperature;BMP_pressure;BME280_temperature;BME280_humidity;BME280_pressure;Samples;Min_cycle;Max_cycle;Signal;HPM_P1;HPM_P2
2022/06/13 00:01:24;;;;;;;6.45;2.78;;;;;;;;;;4858367;29;20047;-60
2022/06/13 00:03:50;;;;;;;6.60;2.90;;;;;;;;;;4871984;29;20087;-62
2022/06/13 00:06:16;;;;;;;7.40;3.30;;;;;;;;;;4864795;29;20041;-60
2022/06/13 00:08:42;;;;;;;5.97;2.67;;;;;;;;;;4875163;29;20033;-61
2022/06/13 00:11:11;;;;;;;7.03;2.92;;;;;;;;;;4876908;29;20439;-60
2022/06/13 00:13:38;;;;;;;7.80;2.80;;;;;;;;;;4877035;29;20039;-62
2022/06/13 00:16:04;;;;;;;9.07;3.00;;;;;;;;;;4874117;29;20029;-61
2022/06/13 00:18:30;;;;;;;9.90;2.95;;;;;;;;;;4875270;29;20068;-61
2022/06/13 00:20:55;;;;;;;8.70;3.15;;;;;;;;;;4876903;29;20534;-61
2022/06/13 00:23:21;;;;;;;7.28;3.20;;;;;;;;;;4874931;29;20120;-60
2022/06/13 00:25:47;;;;;;;6.90;3.20;;;;;;;;;;4874969;29;20116;-61
2022/06/13 00:28:12;;;;;;;6.93;3.13;;;;;;;;;;4874113;29;20108;-61
2022/06/13 00:30:38;;;;;;;8.25;3.25;;;;;;;;;;4877439;29;20482;-62
2022/06/13 00:33:03;;;;;;;5.63;3.10;;;;;;;;;;4874839;29;20033;-62
2022/06/13 00:35:29;;;;;;;7.72;3.28;;;;;;;;;;4873279;29;20085;-61
2022/06/13 00:37:54;;;;;;;9.23;3.20;;;;;;;;;;4880146;29;20043;-60
2022/06/13 00:40:20;;;;;;;8.43;3.10;;;;;;;;;;4878662;29;20517;-60
2022/06/13 00:42:46;;;;;;;6.88;2.95;;;;;;;;;;4879886;29;20442;-60
2022/06/13 00:45:17;;;;;;;8.38;3.35;;;;;;;;;;4878899;29;20041;-60
2022/06/13 00:47:45;;;;;;;10.27;3.40;;;;;;;;;;4879020;29;20072;-63
2022/06/13 00:50:27;;;;;;;5.93;3.30;;;;;;;;;;4857869;29;20076;-61
2022/06/13 00:53:07;;;;;;;8.52;2.97;;;;;;;;;;4879933;29;20050;-61
2022/06/13 00:55:44;;;;;;;7.97;3.00;;;;;;;;;;4879044;29;20052;-61
2022/06/13 00:58:11;;;;;;;9.57;3.30;;;;;;;;;;4880701;29;20037;-62
2022/06/13 01:00:37;;;;;;;8.45;3.10;;;;;;;;;;4878875;29;20123;-60
2022/06/13 01:03:04;;;;;;;8.70;3.55;;;;;;;;;;4878673;29;20288;-61
2022/06/13 01:05:34;;;;;;;7.40;3.10;;;;;;;;;;4878251;29;20045;-60
2022/06/13 01:08:03;;;;;;;8.23;3.20;;;;;;;;;;4879761;29;20059;-60
2022/06/13 01:13:13;;;;;;;7.88;3.20;;;;;;;;;;4879383;29;20088;-61
2022/06/13 01:16:11;;;;;;;7.47;3.47;;;;;;;;;;4877878;29;20041;-61
2022/06/13 01:19:13;;;;;;;6.82;3.28;;;;;;;;;;4850293;29;20100;-61
2022/06/13 01:21:50;;;;;;;6.13;3.15;;;;;;;;;;4861448;29;20132;-60
2022/06/13 01:24:24;;;;;;;8.75;3.35;;;;;;;;;;4873180;29;20085;-61
2022/06/13 01:27:26;;;;;;;8.63;3.20;;;;;;;;;;4878365;29;20064;-61
2022/06/13 01:29:58;;;;;;;8.18;3.47;;;;;;;;;;4876602;29;20033;-61
2022/06/13 01:32:33;;;;;;;9.68;3.60;;;;;;;;;;4880049;29;20044;-60
2022/06/13 01:35:23;;;;;;;8.70;3.20;;;;;;;;;;4875459;29;20040;-60
2022/06/13 01:38:17;;;;;;;7.63;3.30;;;;;;;;;;4878572;29;20033;-60
2022/06/13 01:40:57;;;;;;;8.27;3.75;;;;;;;;;;4876832;29;20339;-62
2022/06/13 01:43:43;;;;;;;6.38;3.30;;;;;;;;;;4878321;29;20115;-60
2022/06/13 01:46:29;;;;;;;7.03;3.20;;;;;;;;;;4878212;29;20080;-60
2022/06/13 01:49:28;;;;;;;7.75;3.47;;;;;;;;;;4861263;29;20067;-60
2022/06/13 01:52:18;;;;;;;7.55;3.30;;;;;;;;;;4866558;29;20103;-61
2022/06/13 01:55:05;;;;;;;8.65;3.90;;;;;;;;;;4860651;29;20057;-62
2022/06/13 01:57:37;;;;;;;8.13;3.33;;;;;;;;;;4876890;29;20045;-60
2022/06/13 02:00:27;;;;;;;6.65;3.60;;;;;;;;;;4876549;29;20075;-61
2022/06/13 02:03:41;;;;;;;7.85;3.88;;;;;;;;;;4873636;29;20096;-60
2022/06/13 02:06:26;;;;;;;8.38;3.80;;;;;;;;;;4844097;29;20041;-60
2022/06/13 02:08:57;;;;;;;6.70;3.65;;;;;;;;;;4862788;29;20052;-62
2022/06/13 02:11:30;;;;;;;7.85;3.90;;;;;;;;;;4860629;29;20037;-61
2022/06/13 02:14:08;;;;;;;9.35;3.88;;;;;;;;;;4875337;29;20457;-61
2022/06/13 02:16:49;;;;;;;7.85;3.90;;;;;;;;;;4879579;29;20033;-60
2022/06/13 02:19:21;;;;;;;10.88;4.25;;;;;;;;;;4877993;29;20047;-61
2022/06/13 02:21:51;;;;;;;7.50;3.88;;;;;;;;;;4877111;29;20037;-63
2022/06/13 02:24:20;;;;;;;10.65;4.05;;;;;;;;;;4862821;29;20034;-61
2022/06/13 02:26:49;;;;;;;9.65;4.40;;;;;;;;;;4871970;29;20076;-62
2022/06/13 02:29:21;;;;;;;10.05;4.15;;;;;;;;;;4878824;29;20115;-61
2022/06/13 02:32:00;;;;;;;10.80;4.20;;;;;;;;;;4876713;29;20059;-63
2022/06/13 02:34:52;;;;;;;9.65;4.45;;;;;;;;;;4869303;29;20041;-62
2022/06/13 02:37:22;;;;;;;10.20;4.55;;;;;;;;;;4837736;29;20075;-61
2022/06/13 02:40:05;;;;;;;15.10;5.03;;;;;;;;;;4878430;29;20037;-63
2022/06/13 02:42:37;;;;;;;10.40;4.88;;;;;;;;;;4877512;29;20124;-61
2022/06/13 02:45:13;;;;;;;10.07;4.75;;;;;;;;;;4876985;29;20048;-60
2022/06/13 02:47:51;;;;;;;9.63;4.47;;;;;;;;;;4860242;29;20076;-61
2022/06/13 02:50:29;;;;;;;11.50;4.43;;;;;;;;;;4878214;29;20032;-60
2022/06/13 02:53:06;;;;;;;9.13;4.43;;;;;;;;;;4874295;29;20165;-60
2022/06/13 02:55:53;;;;;;;7.65;4.38;;;;;;;;;;4877793;29;20033;-61
2022/06/13 02:58:31;;;;;;;11.23;4.40;;;;;;;;;;4868737;29;20123;-60
2022/06/13 03:01:14;;;;;;;9.23;4.65;;;;;;;;;;4877583;29;20045;-61
2022/06/13 03:03:56;;;;;;;10.35;4.68;;;;;;;;;;4875099;29;20090;-60
2022/06/13 03:06:31;;;;;;;12.77;4.93;;;;;;;;;;4878574;29;20040;-60
2022/06/13 03:08:59;;;;;;;11.65;4.70;;;;;;;;;;4875802;29;20048;-60
2022/06/13 03:11:47;;;;;;;9.13;4.25;;;;;;;;;;4872111;29;20065;-60
2022/06/13 03:14:37;;;;;;;10.18;4.93;;;;;;;;;;4875942;29;20040;-61
2022/06/13 03:17:23;;;;;;;9.60;4.30;;;;;;;;;;4867388;29;20052;-60
2022/06/13 03:20:04;;;;;;;10.00;4.60;;;;;;;;;;4877148;29;20044;-63
2022/06/13 03:22:36;;;;;;;;;;;;;;;;;;4875469;29;20116;-61
2022/06/13 03:25:27;;;;;;;11.48;4.47;;;;;;;;;;4877180;29;20003;-60
2022/06/13 03:28:09;;;;;;;11.27;4.57;;;;;;;;;;4874819;29;20049;-63
2022/06/13 03:30:42;;;;;;;12.73;4.80;;;;;;;;;;4877194;29;20040;-60
2022/06/13 03:33:42;;;;;;;10.93;4.82;;;;;;;;;;4877235;29;20160;-60
2022/06/13 03:36:31;;;;;;;9.93;4.77;;;;;;;;;;4874699;29;20041;-60
2022/06/13 03:39:10;;;;;;;12.65;5.00;;;;;;;;;;4877069;29;20069;-61
2022/06/13 03:41:40;;;;;;;11.07;4.50;;;;;;;;;;4875962;29;20072;-60
2022/06/13 03:44:11;;;;;;;11.95;4.70;;;;;;;;;;4877230;29;20029;-61
2022/06/13 03:47:15;;;;;;;11.13;4.88;;;;;;;;;;4876826;29;20089;-62
2022/06/13 03:49:50;;;;;;;7.45;4.45;;;;;;;;;;4819542;29;20035;-60
2022/06/13 03:52:17;;;;;;;13.70;4.85;;;;;;;;;;4866493;29;20049;-60
2022/06/13 03:54:45;;;;;;;8.90;4.10;;;;;;;;;;4877660;29;20075;-60
2022/06/13 03:57:27;;;;;;;11.80;4.97;;;;;;;;;;4874644;29;20065;-60
2022/06/13 04:00:04;;;;;;;10.88;5.25;;;;;;;;;;4877305;29;20035;-63
2022/06/13 04:02:33;;;;;;;14.25;4.30;;;;;;;;;;4875008;29;20037;-62
2022/06/13 04:05:00;;;;;;;9.73;4.57;;;;;;;;;;4873763;29;20101;-61
2022/06/13 04:07:29;;;;;;;11.63;4.47;;;;;;;;;;4876938;29;20032;-61
2022/06/13 04:10:05;;;;;;;10.45;4.50;;;;;;;;;;4878846;29;20033;-62
2022/06/13 04:12:58;;;;;;;13.30;4.53;;;;;;;;;;4880958;29;20549;-61
2022/06/13 04:15:36;;;;;;;14.35;4.95;;;;;;;;;;4862188;29;20035;-61
2022/06/13 04:18:14;;;;;;;11.55;4.68;;;;;;;;;;4880679;29;20044;-62
2022/06/13 04:20:42;;;;;;;11.82;4.75;;;;;;;;;;4862822;29;20073;-61
2022/06/13 04:23:10;;;;;;;9.80;4.72;;;;;;;;;;4861541;29;20073;-63
2022/06/13 04:25:51;;;;;;;10.20;4.82;;;;;;;;;;4862771;29;20029;-60
2022/06/13 04:28:39;;;;;;;22.80;5.68;;;;;;;;;;4863376;29;20471;-61
2022/06/13 04:31:08;;;;;;;10.30;4.68;;;;;;;;;;4877483;29;20037;-62
2022/06/13 04:33:44;;;;;;;10.50;4.50;;;;;;;;;;4879132;29;20041;-61
2022/06/13 04:36:12;;;;;;;13.82;4.95;;;;;;;;;;4879509;29;20025;-61
2022/06/13 04:38:41;;;;;;;10.40;4.38;;;;;;;;;;4880968;29;20037;-61
2022/06/13 04:41:09;;;;;;;15.10;4.82;;;;;;;;;;4879875;29;20120;-63
2022/06/13 04:43:56;;;;;;;10.13;4.18;;;;;;;;;;4871963;29;20398;-61
2022/06/13 04:46:25;;;;;;;12.57;4.65;;;;;;;;;;4879917;29;20033;-61
2022/06/13 04:48:53;;;;;;;12.57;4.38;;;;;;;;;;4880294;29;20046;-62
2022/06/13 04:51:41;;;;;;;12.52;4.82;;;;;;;;;;4857161;29;20098;-62
2022/06/13 04:54:14;;;;;;;11.55;5.03;;;;;;;;;;4866123;29;20106;-61
2022/06/13 04:56:40;;;;;;;14.43;4.78;;;;;;;;;;4878894;29;20043;-60
2022/06/13 04:59:13;;;;;;;11.00;4.78;;;;;;;;;;4879869;29;20112;-60
2022/06/13 05:01:46;;;;;;;11.93;4.53;;;;;;;;;;4879724;29;20053;-61
2022/06/13 05:04:18;;;;;;;15.55;5.30;;;;;;;;;;4867639;29;20446;-61
2022/06/13 05:06:47;;;;;;;11.05;5.30;;;;;;;;;;4878890;29;20033;-62
2022/06/13 05:09:19;;;;;;;12.43;5.93;;;;;;;;;;4878674;29;20067;-63
2022/06/13 05:11:53;;;;;;;14.38;5.30;;;;;;;;;;4877731;29;20390;-67
2022/06/13 05:14:38;;;;;;;12.57;4.93;;;;;;;;;;4877917;29;20093;-66
2022/06/13 05:17:40;;;;;;;9.60;4.88;;;;;;;;;;4874330;29;21541;-68
2022/06/13 05:20:14;;;;;;;13.70;5.15;;;;;;;;;;4887160;29;20041;-69
2022/06/13 05:23:09;;;;;;;12.85;5.18;;;;;;;;;;4873285;29;20384;-70
2022/06/13 05:25:46;;;;;;;13.65;5.63;;;;;;;;;;4861782;29;20060;-70
2022/06/13 05:28:18;;;;;;;16.15;6.20;;;;;;;;;;4871740;29;20056;-73
2022/06/13 05:30:45;;;;;;;15.70;6.97;;;;;;;;;;4876910;29;20033;-72
2022/06/13 05:33:12;;;;;;;17.70;6.70;;;;;;;;;;4879033;29;20033;-76
2022/06/13 05:35:43;;;;;;;17.17;6.97;;;;;;;;;;4876787;29;20541;-74
2022/06/13 05:38:12;;;;;;;21.83;7.80;;;;;;;;;;4879028;29;20037;-73
2022/06/13 05:40:38;;;;;;;22.83;8.35;;;;;;;;;;4879546;29;20272;-72
2022/06/13 05:43:03;;;;;;;18.58;8.15;;;;;;;;;;4876839;29;20055;-70
2022/06/13 05:45:29;;;;;;;22.45;7.65;;;;;;;;;;4879006;29;20481;-72
2022/06/13 05:47:54;;;;;;;19.85;8.55;;;;;;;;;;4861394;29;20032;-69
2022/06/13 05:50:29;;;;;;;12.68;6.93;;;;;;;;;;4855963;29;20041;-70
2022/06/13 05:52:54;;;;;;;16.92;7.75;;;;;;;;;;4876763;29;20055;-73
2022/06/13 05:55:20;;;;;;;17.27;7.53;;;;;;;;;;4897393;29;20032;-70
2022/06/13 05:57:46;;;;;;;14.52;7.10;;;;;;;;;;4886203;29;20033;-71
2022/06/13 06:00:18;;;;;;;20.48;7.95;;;;;;;;;;4877919;29;20090;-70
2022/06/13 06:02:44;;;;;;;19.95;8.55;;;;;;;;;;4878512;29;20036;-71
2022/06/13 06:05:09;;;;;;;18.98;8.18;;;;;;;;;;4877525;29;20041;-70
2022/06/13 06:07:36;;;;;;;20.25;8.57;;;;;;;;;;4878590;29;20064;-69
2022/06/13 06:10:02;;;;;;;17.13;8.23;;;;;;;;;;4876312;29;20033;-69
2022/06/13 06:12:28;;;;;;;21.33;9.45;;;;;;;;;;4875569;29;20120;-67
2022/06/13 06:14:53;;;;;;;22.25;10.35;;;;;;;;;;4879056;29;20115;-69
2022/06/13 06:17:19;;;;;;;20.35;10.05;;;;;;;;;;4859265;29;20618;-69
2022/06/13 06:19:44;;;;;;;23.73;9.88;;;;;;;;;;4883377;29;20530;-67
2022/06/13 06:22:10;;;;;;;20.48;9.27;;;;;;;;;;4889772;29;20040;-71
2022/06/13 06:24:35;;;;;;;21.75;8.95;;;;;;;;;;4879117;29;20415;-71
2022/06/13 06:27:01;;;;;;;23.05;9.40;;;;;;;;;;4873605;29;20109;-66
2022/06/13 06:29:27;;;;;;;22.00;9.57;;;;;;;;;;4879425;29;20029;-78
2022/06/13 06:31:54;;;;;;;24.08;9.80;;;;;;;;;;4869887;29;20089;-69
2022/06/13 06:34:19;;;;;;;19.58;9.95;;;;;;;;;;4877146;29;20033;-67
2022/06/13 06:36:45;;;;;;;19.88;9.02;;;;;;;;;;4878194;29;20144;-67
2022/06/13 06:39:10;;;;;;;20.70;9.25;;;;;;;;;;4877085;29;20036;-67
2022/06/13 06:41:35;;;;;;;22.88;10.15;;;;;;;;;;4876836;29;20517;-68
2022/06/13 06:44:01;;;;;;;23.40;9.30;;;;;;;;;;4877845;29;20032;-70
2022/06/13 06:46:26;;;;;;;22.83;10.05;;;;;;;;;;4859753;29;20172;-70
2022/06/13 06:48:52;;;;;;;16.58;8.23;;;;;;;;;;4876041;29;20029;-70
2022/06/13 06:51:18;;;;;;;20.17;8.32;;;;;;;;;;4858958;29;20029;-71
2022/06/13 07:01:55;;;;;;;19.40;8.95;;;;;;;;;;4864439;29;20410;-72
2022/06/13 07:04:21;;;;;;;19.80;9.20;;;;;;;;;;4866401;29;20029;-70
2022/06/13 07:06:46;;;;;;;26.00;12.75;;;;;;;;;;4871737;29;20435;-69
2022/06/13 07:09:12;;;;;;;23.30;11.85;;;;;;;;;;4874706;29;20033;-72
2022/06/13 07:11:56;;;;;;;22.02;11.77;;;;;;;;;;4877094;29;20467;-71
2022/06/13 07:14:24;;;;;;;20.67;10.40;;;;;;;;;;4873381;29;20111;-66
2022/06/13 07:16:49;;;;;;;19.60;10.80;;;;;;;;;;4876836;29;20044;-67
2022/06/13 07:19:15;;;;;;;21.95;10.80;;;;;;;;;;4875944;29;20044;-68
2022/06/13 07:21:40;;;;;;;21.05;10.60;;;;;;;;;;4877992;29;20636;-65
2022/06/13 07:24:06;;;;;;;22.15;10.90;;;;;;;;;;4873124;29;20061;-65
2022/06/13 07:26:31;;;;;;;22.67;11.55;;;;;;;;;;4876052;29;20124;-67
2022/06/13 07:28:57;;;;;;;21.55;11.40;;;;;;;;;;4873134;29;20035;-67
2022/06/13 07:31:30;;;;;;;23.52;11.48;;;;;;;;;;4873337;29;20227;-72
2022/06/13 07:33:55;;;;;;;28.80;11.23;;;;;;;;;;4876018;29;20395;-68
2022/06/13 07:36:21;;;;;;;22.20;11.63;;;;;;;;;;4875801;29;20040;-62
2022/06/13 07:38:48;;;;;;;25.05;12.48;;;;;;;;;;4877351;29;20037;-67
2022/06/13 07:41:19;;;;;;;24.15;11.98;;;;;;;;;;4875467;29;20037;-67
2022/06/13 07:43:45;;;;;;;23.30;11.88;;;;;;;;;;4875240;29;20113;-68
2022/06/13 07:46:12;;;;;;;20.30;12.30;;;;;;;;;;4878414;29;20051;-64
2022/06/13 07:48:37;;;;;;;24.38;12.68;;;;;;;;;;4877715;29;20492;-64
2022/06/13 07:51:05;;;;;;;20.33;11.63;;;;;;;;;;4850295;29;20132;-67
2022/06/13 07:53:32;;;;;;;23.23;12.27;;;;;;;;;;4864945;29;20033;-67
2022/06/13 07:55:57;;;;;;;27.02;12.68;;;;;;;;;;4880332;29;20033;-63
2022/06/13 07:58:31;;;;;;;23.00;12.57;;;;;;;;;;4878337;29;20063;-68
2022/06/13 08:00:57;;;;;;;22.27;12.07;;;;;;;;;;4879420;29;20119;-65
2022/06/13 08:03:27;;;;;;;24.83;11.57;;;;;;;;;;4874240;29;20036;-66
2022/06/13 08:05:53;;;;;;;26.58;11.80;;;;;;;;;;4876346;29;20116;-65
2022/06/13 08:08:18;;;;;;;19.25;10.02;;;;;;;;;;4878557;29;20124;-65
2022/06/13 08:10:45;;;;;;;22.25;8.30;;;;;;;;;;4878757;29;20450;-64
2022/06/13 08:13:15;;;;;;;21.40;8.63;;;;;;;;;;4878838;29;20059;-64
2022/06/13 08:15:41;;;;;;;19.45;8.77;;;;;;;;;;4880862;29;20549;-63
2022/06/13 08:18:07;;;;;;;17.55;8.32;;;;;;;;;;4861491;29;20048;-65
2022/06/13 08:20:33;;;;;;;18.65;8.23;;;;;;;;;;4876304;29;20041;-65
2022/06/13 08:23:00;;;;;;;17.05;8.60;;;;;;;;;;4879000;29;20044;-63
2022/06/13 08:25:28;;;;;;;16.10;8.48;;;;;;;;;;4878471;29;20040;-65
2022/06/13 08:27:58;;;;;;;18.88;8.45;;;;;;;;;;4880992;29;20055;-65
2022/06/13 08:30:26;;;;;;;16.40;8.73;;;;;;;;;;4876367;29;20908;-67
2022/06/13 08:32:51;;;;;;;17.70;8.07;;;;;;;;;;4880360;29;20465;-65
2022/06/13 08:35:17;;;;;;;20.67;8.00;;;;;;;;;;4877694;29;20033;-67
2022/06/13 08:37:42;;;;;;;16.60;7.68;;;;;;;;;;4879831;29;20047;-66
2022/06/13 08:40:10;;;;;;;14.25;7.25;;;;;;;;;;4878257;29;20048;-65
2022/06/13 08:42:43;;;;;;;12.73;6.13;;;;;;;;;;4880581;29;20029;-67
2022/06/13 08:45:37;;;;;;;12.75;6.47;;;;;;;;;;4877850;29;20047;-70
2022/06/13 08:48:08;;;;;;;14.88;6.18;;;;;;;;;;4875657;29;20040;-69
2022/06/13 08:50:51;;;;;;;13.30;6.25;;;;;;;;;;4879789;29;20068;-69
2022/06/13 08:53:26;;;;;;;12.48;5.00;;;;;;;;;;4877388;29;20037;-66
2022/06/13 08:56:09;;;;;;;11.20;5.03;;;;;;;;;;4879829;29;20044;-69
2022/06/13 08:58:43;;;;;;;11.45;4.45;;;;;;;;;;4878983;29;20036;-68
2022/06/13 09:01:16;;;;;;;10.43;4.65;;;;;;;;;;4869178;29;20474;-67
2022/06/13 09:04:08;;;;;;;13.10;4.55;;;;;;;;;;4879339;29;20049;-66
2022/06/13 09:06:40;;;;;;;8.98;3.90;;;;;;;;;;4877185;29;20041;-67
2022/06/13 09:09:14;;;;;;;10.18;4.40;;;;;;;;;;4877240;29;20037;-67
2022/06/13 09:12:16;;;;;;;14.52;4.68;;;;;;;;;;4878697;29;20044;-69
2022/06/13 09:15:00;;;;;;;13.85;5.05;;;;;;;;;;4856137;29;20177;-67
2022/06/13 09:17:33;;;;;;;11.00;4.60;;;;;;;;;;4879430;29;20037;-66
2022/06/13 09:20:10;;;;;;;14.30;4.93;;;;;;;;;;4873534;29;20123;-69
2022/06/13 09:22:56;;;;;;;11.98;4.50;;;;;;;;;;4878458;29;20037;-67
2022/06/13 09:25:48;;;;;;;8.55;4.03;;;;;;;;;;4868273;29;20045;-65
2022/06/13 09:28:38;;;;;;;11.57;4.45;;;;;;;;;;4876548;29;20432;-67
2022/06/13 09:31:21;;;;;;;10.35;3.95;;;;;;;;;;4842271;29;20127;-68
2022/06/13 09:33:55;;;;;;;11.07;3.88;;;;;;;;;;4878235;29;20037;-67
2022/06/13 09:36:21;;;;;;;9.88;3.70;;;;;;;;;;4879273;29;20603;-68
2022/06/13 09:38:59;;;;;;;10.05;4.03;;;;;;;;;;4878159;29;20086;-68
2022/06/13 09:41:53;;;;;;;13.45;3.70;;;;;;;;;;4876008;29;20053;-66
2022/06/13 09:44:44;;;;;;;11.50;4.13;;;;;;;;;;4877248;29;20033;-70
2022/06/13 09:47:34;;;;;;;11.00;4.25;;;;;;;;;;4876964;29;20504;-66
2022/06/13 09:50:23;;;;;;;13.35;3.75;;;;;;;;;;4873551;29;20073;-68
2022/06/13 09:53:10;;;;;;;9.80;3.88;;;;;;;;;;4864230;29;20045;-69
2022/06/13 09:55:36;;;;;;;7.68;3.33;;;;;;;;;;4878907;29;20060;-67
2022/06/13 09:58:45;;;;;;;7.32;3.13;;;;;;;;;;4873066;29;20471;-68
2022/06/13 10:01:39;;;;;;;9.75;2.83;;;;;;;;;;4859092;29;20487;-70
2022/06/13 10:04:29;;;;;;;8.48;2.65;;;;;;;;;;4874540;29;20060;-71
2022/06/13 10:07:31;;;;;;;8.75;3.00;;;;;;;;;;4877356;29;20478;-66
2022/06/13 10:10:15;;;;;;;8.23;3.03;;;;;;;;;;4860580;29;20478;-71
2022/06/13 10:12:56;;;;;;;6.72;2.58;;;;;;;;;;4876782;29;20037;-70
2022/06/13 10:15:36;;;;;;;6.22;2.40;;;;;;;;;;4878257;29;20028;-65
2022/06/13 10:18:07;;;;;;;6.68;2.35;;;;;;;;;;4877087;29;20041;-66
2022/06/13 10:20:45;;;;;;;6.72;2.20;;;;;;;;;;4879262;29;20029;-65
2022/06/13 10:23:26;;;;;;;6.78;2.33;;;;;;;;;;4859255;29;20123;-66
2022/06/13 10:26:10;;;;;;;;;;;;;;;;;;4878254;29;20036;-64
2022/06/13 10:29:00;;;;;;;9.45;2.60;;;;;;;;;;4872858;29;20426;-67
2022/06/13 10:31:53;;;;;;;4.38;2.25;;;;;;;;;;4874363;29;20586;-68
2022/06/13 10:34:50;;;;;;;4.18;1.90;;;;;;;;;;4878198;29;20029;-66
2022/06/13 10:37:34;;;;;;;4.68;1.95;;;;;;;;;;4872623;29;20044;-67
2022/06/13 10:40:03;;;;;;;4.93;2.17;;;;;;;;;;4878922;29;20036;-68
2022/06/13 10:42:32;;;;;;;3.97;2.25;;;;;;;;;;4857470;29;20076;-69
2022/06/13 10:44:58;;;;;;;9.43;2.40;;;;;;;;;;4878689;29;20069;-70
2022/06/13 10:47:29;;;;;;;6.78;2.47;;;;;;;;;;4874678;29;20458;-68
2022/06/13 10:50:01;;;;;;;7.53;2.42;;;;;;;;;;4876235;29;20398;-69
2022/06/13 10:52:32;;;;;;;9.93;2.20;;;;;;;;;;4878087;29;20041;-68
2022/06/13 10:55:09;;;;;;;6.05;2.38;;;;;;;;;;4877460;29;20063;-71
2022/06/13 10:57:42;;;;;;;7.03;2.60;;;;;;;;;;4861766;29;20043;-69
2022/06/13 11:00:23;;;;;;;5.60;2.38;;;;;;;;;;4876830;29;20059;-70
2022/06/13 11:02:49;;;;;;;6.32;2.65;;;;;;;;;;4877423;29;20467;-68
2022/06/13 11:05:25;;;;;;;6.22;2.50;;;;;;;;;;4875261;29;20039;-67
2022/06/13 11:07:55;;;;;;;5.78;2.45;;;;;;;;;;4863838;29;20037;-65
2022/06/13 11:10:37;;;;;;;4.77;2.20;;;;;;;;;;4876575;29;20697;-64
2022/06/13 11:13:05;;;;;;;6.30;2.10;;;;;;;;;;4877273;29;20089;-68
2022/06/13 11:24:43;;;;;;;5.80;2.03;;;;;;;;;;4876888;29;20040;-70
2022/06/13 11:27:42;;;;;;;;;;;;;;;;;;4875481;29;20080;-64
2022/06/13 11:30:18;;;;;;;4.38;1.80;;;;;;;;;;4873133;29;19938;-66
2022/06/13 11:33:03;;;;;;;3.80;1.52;;;;;;;;;;4865814;29;20041;-66
2022/06/13 11:35:34;;;;;;;5.57;1.60;;;;;;;;;;4877457;29;20442;-66
2022/06/13 11:38:24;;;;;;;3.78;1.70;;;;;;;;;;4876798;29;20048;-69
2022/06/13 11:41:01;;;;;;;5.60;2.17;;;;;;;;;;4876196;29;20100;-69
2022/06/13 11:43:35;;;;;;;5.32;2.10;;;;;;;;;;4858855;29;20478;-69
2022/06/13 11:46:05;;;;;;;6.03;2.08;;;;;;;;;;4874484;29;20545;-69
2022/06/13 11:48:31;;;;;;;4.20;2.08;;;;;;;;;;4877920;29;20057;-70
2022/06/13 11:51:00;;;;;;;4.53;2.10;;;;;;;;;;4858697;29;20049;-70
2022/06/13 11:53:35;;;;;;;7.32;1.90;;;;;;;;;;4860497;29;20041;-69
2022/06/13 11:56:08;;;;;;;4.63;1.80;;;;;;;;;;4876683;29;20069;-70
2022/06/13 11:58:41;;;;;;;3.90;1.70;;;;;;;;;;4875626;29;20119;-67
2022/06/13 12:01:28;;;;;;;4.28;1.70;;;;;;;;;;4875212;29;20045;-68
2022/06/13 12:04:04;;;;;;;5.32;1.80;;;;;;;;;;4875880;29;20025;-67
2022/06/13 12:06:46;;;;;;;3.75;1.63;;;;;;;;;;4877168;29;20047;-67
2022/06/13 12:09:33;;;;;;;4.15;1.40;;;;;;;;;;4875232;29;20043;-67
2022/06/13 12:12:00;;;;;;;3.47;1.40;;;;;;;;;;4878387;29;20493;-66
2022/06/13 12:14:30;;;;;;;3.15;1.40;;;;;;;;;;4859588;29;20223;-67
2022/06/13 12:17:06;;;;;;;;;;;;;;;;;;4877253;29;20073;-66
2022/06/13 12:19:34;;;;;;;5.20;1.77;;;;;;;;;;4876315;29;20341;-66
2022/06/13 12:22:11;;;;;;;7.25;1.42;;;;;;;;;;4876632;29;20056;-64
2022/06/13 12:25:00;;;;;;;4.07;1.33;;;;;;;;;;4876833;29;20471;-68
2022/06/13 12:27:56;;;;;;;4.22;1.40;;;;;;;;;;4858180;29;20056;-68
2022/06/13 12:30:49;;;;;;;2.88;1.30;;;;;;;;;;4872760;29;20043;-69
2022/06/13 12:33:35;;;;;;;6.88;1.60;;;;;;;;;;4878572;29;20508;-65
2022/06/13 12:36:15;;;;;;;5.90;1.42;;;;;;;;;;4879188;29;20052;-65
2022/06/13 12:38:46;;;;;;;3.53;1.52;;;;;;;;;;4879447;29;20036;-69
2022/06/13 12:41:28;;;;;;;3.42;1.60;;;;;;;;;;4874461;29;20037;-66
2022/06/13 12:44:18;;;;;;;2.70;1.33;;;;;;;;;;4879039;29;20390;-66
2022/06/13 12:46:46;;;;;;;5.05;1.58;;;;;;;;;;4878870;29;20037;-67
2022/06/13 12:49:33;;;;;;;4.20;1.40;;;;;;;;;;4878319;29;20044;-67
2022/06/13 12:52:07;;;;;;;2.72;1.30;;;;;;;;;;4877807;29;20363;-71
2022/06/13 12:54:50;;;;;;;2.78;1.30;;;;;;;;;;4880640;29;20045;-68
2022/06/13 12:57:53;;;;;;;6.45;1.27;;;;;;;;;;4876972;29;20514;-69
2022/06/13 13:00:36;;;;;;;2.80;1.30;;;;;;;;;;4817287;29;20058;-66
2022/06/13 13:03:28;;;;;;;3.67;1.50;;;;;;;;;;4860094;29;20136;-64
2022/06/13 13:06:04;;;;;;;2.42;1.20;;;;;;;;;;4879381;29;20029;-64
2022/06/13 13:08:51;;;;;;;5.20;1.40;;;;;;;;;;4876746;29;20037;-68
2022/06/13 13:11:38;;;;;;;6.05;1.50;;;;;;;;;;4859943;29;20131;-69
2022/06/13 13:14:22;;;;;;;3.97;1.48;;;;;;;;;;4868015;29;20037;-67
2022/06/13 13:16:59;;;;;;;4.25;1.40;;;;;;;;;;4877991;29;20041;-65
2022/06/13 13:19:33;;;;;;;2.95;1.30;;;;;;;;;;4862335;29;20051;-65
2022/06/13 13:22:12;;;;;;;7.32;1.50;;;;;;;;;;4878364;29;20052;-68
2022/06/13 13:24:44;;;;;;;3.67;1.25;;;;;;;;;;4879587;29;20111;-70
2022/06/13 13:27:15;;;;;;;4.53;1.52;;;;;;;;;;4879194;29;20057;-70
2022/06/13 13:30:05;;;;;;;2.35;1.35;;;;;;;;;;4861676;29;20044;-70
2022/06/13 13:32:37;;;;;;;4.75;1.40;;;;;;;;;;4878303;29;20036;-68
2022/06/13 13:35:20;;;;;;;4.80;1.30;;;;;;;;;;4872374;29;20470;-66
2022/06/13 13:37:53;;;;;;;3.10;1.50;;;;;;;;;;4873324;29;20045;-66
2022/06/13 13:40:39;;;;;;;2.75;1.40;;;;;;;;;;4871805;29;20069;-66
2022/06/13 13:43:32;;;;;;;4.35;1.20;;;;;;;;;;4876206;29;20447;-66
2022/06/13 13:46:12;;;;;;;2.85;1.23;;;;;;;;;;4879628;29;20080;-69
2022/06/13 13:48:45;;;;;;;4.82;1.50;;;;;;;;;;4877851;29;20034;-67
2022/06/13 13:51:35;;;;;;;4.63;1.30;;;;;;;;;;4860084;29;20120;-71
2022/06/13 13:54:12;;;;;;;4.20;1.48;;;;;;;;;;4875441;29;20052;-66
2022/06/13 13:56:46;;;;;;;2.25;1.45;;;;;;;;;;4878486;29;20037;-67
2022/06/13 13:59:19;;;;;;;6.10;1.40;;;;;;;;;;4876542;29;20032;-65
2022/06/13 14:01:58;;;;;;;4.80;1.52;;;;;;;;;;4878282;29;20474;-67
2022/06/13 14:04:28;;;;;;;2.50;1.30;;;;;;;;;;4861690;29;20602;-66
2022/06/13 14:07:21;;;;;;;4.05;1.40;;;;;;;;;;4878901;29;20033;-65
2022/06/13 14:09:48;;;;;;;4.20;1.42;;;;;;;;;;4878499;29;20076;-65
2022/06/13 14:12:14;;;;;;;2.53;1.30;;;;;;;;;;4875724;29;20363;-68
2022/06/13 14:14:59;;;;;;;3.58;1.40;;;;;;;;;;4861834;29;20037;-67
2022/06/13 14:17:29;;;;;;;2.47;1.30;;;;;;;;;;4870746;29;20041;-66
2022/06/13 14:19:59;;;;;;;3.58;1.38;;;;;;;;;;4877407;29;20037;-67
2022/06/13 14:22:26;;;;;;;3.72;1.30;;;;;;;;;;4876379;29;20053;-65
2022/06/13 14:25:13;;;;;;;2.20;1.10;;;;;;;;;;4874711;29;20051;-70
2022/06/13 14:27:50;;;;;;;3.95;1.45;;;;;;;;;;4876595;29;20041;-72
2022/06/13 14:35:11;;;;;;;3.88;1.45;;;;;;;;;;4877855;29;20085;-69
2022/06/13 14:35:58;;;;;;;3.72;1.67;;;;;;;;;;4875893;29;20045;-68
2022/06/13 14:38:53;;;;;;;5.50;1.20;;;;;;;;;;4876835;29;20037;-67
2022/06/13 14:41:35;;;;;;;4.35;1.42;;;;;;;;;;4883090;29;20470;-65
2022/06/13 14:44:20;;;;;;;3.30;1.30;;;;;;;;;;4880955;29;20036;-64
2022/06/13 14:47:02;;;;;;;3.83;1.23;;;;;;;;;;4877659;29;20526;-65
2022/06/13 14:49:47;;;;;;;4.63;1.20;;;;;;;;;;4847801;29;20065;-66
2022/06/13 14:52:18;;;;;;;2.13;1.25;;;;;;;;;;4858571;29;20064;-66
2022/06/13 14:54:50;;;;;;;3.22;1.35;;;;;;;;;;4875182;29;20463;-62
2022/06/13 14:57:27;;;;;;;4.47;1.30;;;;;;;;;;4877571;29;20036;-64
2022/06/13 15:00:25;;;;;;;3.38;1.40;;;;;;;;;;4875341;29;20119;-65
2022/06/13 15:02:54;;;;;;;2.63;1.40;;;;;;;;;;4860086;29;20097;-60
2022/06/13 15:05:50;;;;;;;3.28;1.50;;;;;;;;;;4857996;29;20125;-60
2022/06/13 15:08:44;;;;;;;4.72;1.40;;;;;;;;;;4851358;29;20045;-61
2022/06/13 15:11:14;;;;;;;3.97;1.30;;;;;;;;;;4858705;29;20034;-61
2022/06/13 15:13:41;;;;;;;;;;;;;;;;;;4860281;29;20036;-60
2022/06/13 15:16:08;;;;;;;5.78;1.70;;;;;;;;;;4873812;29;19927;-62
2022/06/13 15:18:36;;;;;;;5.00;1.48;;;;;;;;;;4878252;29;20475;-60
2022/06/13 15:21:06;;;;;;;4.97;1.42;;;;;;;;;;4878149;29;20040;-60
2022/06/13 15:23:40;;;;;;;4.27;1.50;;;;;;;;;;4877154;29;20037;-60
2022/06/13 15:26:06;;;;;;;3.33;1.40;;;;;;;;;;4877644;29;20117;-63
2022/06/13 15:28:50;;;;;;;3.35;1.40;;;;;;;;;;4878243;29;20065;-60
2022/06/13 15:31:25;;;;;;;5.57;1.38;;;;;;;;;;4876851;29;20038;-61
2022/06/13 15:34:27;;;;;;;3.95;1.63;;;;;;;;;;4861529;29;20044;-60
2022/06/13 15:37:02;;;;;;;4.00;1.52;;;;;;;;;;4876846;29;20522;-62
2022/06/13 15:39:36;;;;;;;2.05;1.20;;;;;;;;;;4877056;29;20080;-61
2022/06/13 15:42:10;;;;;;;6.20;1.63;;;;;;;;;;4878070;29;20025;-60
2022/06/13 15:44:36;;;;;;;4.82;1.52;;;;;;;;;;4878415;29;20033;-60
2022/06/13 15:47:06;;;;;;;6.05;1.77;;;;;;;;;;4861376;29;20037;-61
2022/06/13 15:49:38;;;;;;;5.43;1.80;;;;;;;;;;4873337;29;20045;-62
2022/06/13 15:52:17;;;;;;;2.88;1.27;;;;;;;;;;4871167;29;20065;-61